Time;durP1;ratioP1;P1;durP2;ratioP2;P2;SDS_P1;SDS_P2;PMS_P1;PMS_P2;Temp;Humidity;BMP_temperature;BMP_pressure;BME280_temperature;BME280_humidity;BME280_pressure;Samples;Min_cycle;Max_cycle;Signal;HPM_P1;HPM_P2
2022/07/10 00:00:29;;;;;;;1.70;1.60;;;;;;;22.50;55.68;101061.75;5102118;28;20453;-75
2022/07/10 00:02:55;;;;;;;2.03;1.70;;;;;;;22.51;55.69;101057.88;5074847;28;20482;-75
2022/07/10 00:05:22;;;;;;;2.20;1.70;;;;;;;22.49;55.67;101063.69;5073933;28;20879;-75
2022/07/10 00:07:49;;;;;;;1.70;1.63;;;;;;;22.45;55.83;101054.44;5086427;28;20498;-75
2022/07/10 00:10:15;;;;;;;2.72;2.03;;;;;;;22.43;55.82;101053.91;5091263;28;20398;-77
2022/07/10 00:12:40;;;;;;;1.90;1.80;;;;;;;22.44;55.84;101063.81;5070385;28;20446;-77
2022/07/10 00:15:06;;;;;;;2.10;2.00;;;;;;;22.46;55.56;101060.78;5090057;28;20392;-74
2022/07/10 00:17:32;;;;;;;1.80;1.70;;;;;;;22.46;55.58;101058.81;5089040;28;20973;-77
2022/07/10 00:19:57;;;;;;;1.92;1.80;;;;;;;22.33;56.02;101054.13;5085095;28;20449;-77
2022/07/10 00:22:23;;;;;;;2.00;1.90;;;;;;;22.24;56.26;101048.50;5092918;28;20418;-78
2022/07/10 00:24:50;;;;;;;2.53;2.20;;;;;;;22.15;56.53;101052.31;5091885;28;20382;-77
2022/07/10 00:27:16;;;;;;;2.00;1.90;;;;;;;22.13;56.70;101049.00;5079943;28;20444;-77
2022/07/10 00:29:42;;;;;;;2.20;2.10;;;;;;;22.14;56.79;101039.63;5086120;28;20398;-77
2022/07/10 00:32:07;;;;;;;5.93;2.10;;;;;;;22.12;56.73;101048.22;5092552;28;20454;-77
2022/07/10 00:34:33;;;;;;;2.30;2.10;;;;;;;22.12;56.79;101042.69;5066565;28;20454;-77
2022/07/10 00:36:58;;;;;;;2.63;1.80;;;;;;;22.14;56.73;101045.97;5091272;28;20382;-75
2022/07/10 00:39:23;;;;;;;3.50;2.03;;;;;;;22.15;56.82;101047.59;5068827;28;20402;-78
2022/07/10 00:41:49;;;;;;;2.33;2.13;;;;;;;22.16;56.86;101045.66;5092386;28;20789;-78
2022/07/10 00:44:14;;;;;;;3.63;2.37;;;;;;;22.09;56.83;101043.31;5074116;28;20488;-78
2022/07/10 00:46:40;;;;;;;2.60;2.50;;;;;;;22.10;56.56;101046.88;5065241;28;20414;-77
2022/07/10 00:49:05;;;;;;;2.77;2.57;;;;;;;22.08;56.74;101036.16;5083803;28;20626;-77
2022/07/10 00:51:33;;;;;;;2.20;2.10;;;;;;;22.09;56.48;101035.03;5066213;28;20488;-77
2022/07/10 00:53:59;;;;;;;2.60;2.50;;;;;;;22.08;56.54;101041.69;5080471;28;20469;-77
2022/07/10 00:56:26;;;;;;;2.53;2.33;;;;;;;22.08;56.59;101040.84;5087292;28;20489;-77
2022/07/10 00:58:51;;;;;;;2.20;2.03;;;;;;;22.06;56.74;101035.63;5066089;28;20831;-77
2022/07/10 01:01:18;;;;;;;2.30;2.20;;;;;;;22.06;56.94;101037.59;5107770;28;20494;-74
2022/07/10 01:03:45;;;;;;;2.20;2.10;;;;;;;22.02;56.75;101040.16;5068000;28;20497;-77
2022/07/10 01:06:11;;;;;;;2.95;2.05;;;;;;;21.99;56.76;101035.25;5105254;28;20405;-78
2022/07/10 01:08:37;;;;;;;2.20;2.00;;;;;;;21.96;56.73;101043.31;5055885;28;20402;-77
2022/07/10 01:11:02;;;;;;;1.93;1.87;;;;;;;21.93;56.67;101041.97;5084475;28;20934;-77
2022/07/10 01:13:28;;;;;;;2.50;1.80;;;;;;;21.86;56.31;101038.78;5088549;28;20405;-74
2022/07/10 01:15:53;;;;;;;2.00;1.90;;;;;;;21.76;56.33;101039.00;5091427;28;20378;-75
2022/07/10 01:18:20;;;;;;;2.13;2.03;;;;;;;21.70;56.12;101034.69;5071170;28;20418;-77
2022/07/10 01:20:45;;;;;;;1.70;1.60;;;;;;;21.67;56.15;101030.59;5090460;28;20921;-77
2022/07/10 01:23:10;;;;;;;1.88;1.50;;;;;;;21.58;55.99;101039.88;5062570;28;20417;-78
2022/07/10 01:25:36;;;;;;;1.67;1.57;;;;;;;21.52;56.14;101049.34;5056694;28;20391;-77
2022/07/10 01:28:01;;;;;;;1.33;1.33;;;;;;;21.45;55.83;101043.41;5086426;28;20917;-77
2022/07/10 01:30:27;;;;;;;2.05;1.85;;;;;;;21.38;55.77;101045.75;5097632;28;20488;-78
2022/07/10 01:32:52;;;;;;;1.63;1.53;;;;;;;21.26;55.34;101043.47;5071279;28;20484;-75
2022/07/10 01:35:18;;;;;;;2.93;1.33;;;;;;;21.24;55.32;101042.16;5078359;28;20496;-75
2022/07/10 01:37:44;;;;;;;1.55;1.45;;;;;;;21.30;54.90;101039.00;5080465;28;20403;-78
2022/07/10 01:40:11;;;;;;;1.60;1.60;;;;;;;21.28;54.31;101049.50;5073239;28;20928;-78
2022/07/10 01:42:37;;;;;;;3.22;1.30;;;;;;;21.21;53.94;101049.88;5050325;28;20435;-74
2022/07/10 01:45:09;;;;;;;2.90;1.52;;;;;;;21.24;53.98;101051.22;5060828;28;20402;-75
2022/07/10 01:47:35;;;;;;;1.90;1.05;;;;;;;21.18;53.91;101050.50;5058792;28;20414;-77
2022/07/10 01:50:00;;;;;;;2.08;1.17;;;;;;;21.11;53.87;101050.06;5071110;28;20479;-77
2022/07/10 01:52:27;;;;;;;1.80;1.10;;;;;;;21.17;53.95;101061.84;5069975;28;20416;-78
2022/07/10 01:54:52;;;;;;;4.27;1.10;;;;;;;21.15;53.57;101062.13;5063743;28;20411;-78
2022/07/10 01:57:18;;;;;;;2.50;1.27;;;;;;;21.06;53.59;101071.34;5068806;28;20449;-75
2022/07/10 01:59:44;;;;;;;3.07;1.40;;;;;;;21.08;53.34;101063.56;5067113;28;20408;-78
2022/07/10 02:02:10;;;;;;;2.55;1.40;;;;;;;21.01;53.34;101063.16;5059761;28;20392;-77
2022/07/10 02:04:41;;;;;;;3.83;1.30;;;;;;;21.04;53.45;101066.09;5083007;28;20411;-77
2022/07/10 02:07:11;;;;;;;1.45;0.90;;;;;;;21.01;53.47;101068.69;5070577;28;20392;-78
2022/07/10 02:09:37;;;;;;;2.10;1.10;;;;;;;20.96;53.54;101063.22;5061780;28;20491;-75
2022/07/10 02:12:03;;;;;;;1.47;1.30;;;;;;;20.94;53.60;101071.81;5071246;28;20551;-78
2022/07/10 02:14:29;;;;;;;2.13;1.05;;;;;;;20.89;53.88;101071.03;5051330;28;20545;-77
2022/07/10 02:16:55;;;;;;;3.72;1.40;;;;;;;20.88;53.73;101075.72;5058572;28;20913;-78
2022/07/10 02:19:21;;;;;;;2.08;1.35;;;;;;;20.84;53.67;101087.66;5083161;28;20411;-77
2022/07/10 02:21:48;;;;;;;3.55;1.17;;;;;;;20.75;53.90;101089.47;5070994;28;20388;-78
2022/07/10 02:24:13;;;;;;;2.43;1.13;;;;;;;20.71;53.83;101089.22;5061017;28;20457;-78
2022/07/10 02:26:38;;;;;;;1.58;1.02;;;;;;;20.64;54.18;101089.59;5069407;28;20395;-77
2022/07/10 02:29:04;;;;;;;3.97;1.47;;;;;;;20.59;53.97;101086.06;5053522;28;20568;-75
2022/07/10 02:31:29;;;;;;;2.00;1.03;;;;;;;20.58;54.00;101076.19;5054084;28;20925;-75
2022/07/10 02:33:55;;;;;;;2.67;1.03;;;;;;;20.57;54.20;101082.81;5070106;28;20395;-77
2022/07/10 02:36:20;;;;;;;1.40;1.00;;;;;;;20.58;53.73;101078.94;5071729;28;20486;-75
2022/07/10 02:38:46;;;;;;;2.57;1.30;;;;;;;20.51;53.95;101078.50;5054228;28;20401;-77
2022/07/10 02:41:13;;;;;;;0.80;0.80;;;;;;;20.46;54.24;101079.38;5073208;28;20480;-77
2022/07/10 02:43:38;;;;;;;2.58;0.80;;;;;;;20.44;54.27;101076.09;5061509;28;20418;-78
2022/07/10 02:46:05;;;;;;;1.07;0.97;;;;;;;20.46;54.23;101075.78;5074485;28;20396;-78
2022/07/10 02:48:30;;;;;;;2.75;1.10;;;;;;;20.42;54.20;101083.81;5055905;28;20507;-74
2022/07/10 02:50:55;;;;;;;8.37;1.73;;;;;;;20.36;54.21;101076.75;5059943;28;20478;-78
2022/07/10 02:53:21;;;;;;;1.55;1.05;;;;;;;20.30;54.31;101085.38;5068896;28;20500;-77
2022/07/10 02:55:46;;;;;;;1.67;1.00;;;;;;;20.23;54.46;101087.63;5070640;28;20415;-75
2022/07/10 02:58:15;;;;;;;1.37;0.90;;;;;;;20.20;54.58;101089.84;5073904;28;20415;-77
2022/07/10 03:00:41;;;;;;;1.27;1.00;;;;;;;20.16;54.82;101085.22;5058555;28;20399;-78
2022/07/10 03:03:07;;;;;;;2.30;0.90;;;;;;;20.13;54.86;101088.56;5074526;28;20478;-77
2022/07/10 03:05:33;;;;;;;1.98;1.15;;;;;;;20.12;55.24;101093.22;5064314;28;20416;-78
2022/07/10 03:07:59;;;;;;;2.93;1.20;;;;;;;20.20;54.78;101091.78;5073058;28;20404;-77
2022/07/10 03:10:25;;;;;;;1.67;1.02;;;;;;;20.25;54.68;101090.91;5083826;28;20589;-77
2022/07/10 03:12:50;;;;;;;3.40;1.05;;;;;;;20.19;54.60;101093.72;5090060;28;20392;-77
2022/07/10 03:15:17;;;;;;;2.90;1.13;;;;;;;20.20;54.54;101100.84;5063842;28;20417;-77
2022/07/10 03:17:43;;;;;;;2.28;0.95;;;;;;;20.18;54.54;101091.25;5068338;28;20982;-77
2022/07/10 03:20:09;;;;;;;0.83;0.83;;;;;;;20.05;54.84;101091.97;5073505;28;20488;-77
2022/07/10 03:22:36;;;;;;;2.72;1.10;;;;;;;20.06;54.92;101094.41;5060261;28;20440;-77
2022/07/10 03:25:03;;;;;;;4.10;1.45;;;;;;;20.10;54.99;101092.72;5067951;28;20436;-77
2022/07/10 03:27:28;;;;;;;5.25;1.02;;;;;;;20.05;54.78;101092.78;5072660;28;20418;-77
2022/07/10 03:29:53;;;;;;;2.40;0.90;;;;;;;20.00;55.14;101090.09;5067590;28;20486;-77
2022/07/10 03:32:19;;;;;;;0.93;0.83;;;;;;;19.98;55.07;101095.06;5074029;28;20396;-77
2022/07/10 03:34:44;;;;;;;1.83;1.02;;;;;;;19.99;55.12;101102.19;5086190;28;20403;-77
2022/07/10 03:37:10;;;;;;;4.33;0.87;;;;;;;20.00;55.14;101094.75;5069927;28;20411;-77
2022/07/10 03:39:36;;;;;;;3.17;1.10;;;;;;;19.92;55.18;101095.41;5058314;28;20879;-77
2022/07/10 03:42:02;;;;;;;1.73;1.00;;;;;;;19.91;55.45;101093.75;5071918;28;20398;-76
2022/07/10 03:44:28;;;;;;;3.03;0.90;;;;;;;19.98;55.31;101105.25;5060162;28;20436;-77
2022/07/10 03:46:53;;;;;;;2.28;1.00;;;;;;;19.97;55.11;101103.59;5065161;28;20770;-77
2022/07/10 03:49:20;;;;;;;1.30;0.95;;;;;;;19.99;55.21;101095.91;5068971;28;20396;-77
2022/07/10 03:51:46;;;;;;;4.88;0.93;;;;;;;20.04;54.93;101102.16;5056465;28;20398;-77
2022/07/10 03:54:12;;;;;;;2.90;0.80;;;;;;;19.93;55.07;101108.03;5068453;28;20400;-77
2022/07/10 03:59:22;;;;;;;1.90;0.80;;;;;;;19.83;55.08;101110.88;5069648;28;20457;-77
2022/07/10 04:01:47;;;;;;;3.30;1.10;;;;;;;19.77;55.33;101107.38;5072026;28;20395;-77
2022/07/10 04:04:13;;;;;;;1.27;0.93;;;;;;;19.81;55.04;101107.63;5061996;28;20405;-76
2022/07/10 04:06:39;;;;;;;2.37;0.90;;;;;;;19.81;54.96;101113.13;5041492;28;20478;-77
2022/07/10 04:09:07;;;;;;;3.17;1.00;;;;;;;19.81;54.95;101113.94;5068708;28;20524;-76
2022/07/10 04:11:34;;;;;;;2.42;0.95;;;;;;;19.76;54.76;101113.97;5055099;28;20452;-77
2022/07/10 04:14:00;;;;;;;1.95;0.90;;;;;;;19.77;54.59;101103.81;5068494;28;20403;-77
2022/07/10 04:16:26;;;;;;;2.13;1.03;;;;;;;19.85;54.65;101114.19;5072141;28;20526;-76
2022/07/10 04:18:53;;;;;;;4.72;1.00;;;;;;;19.84;54.53;101110.63;5078468;28;20993;-77
2022/07/10 04:21:20;;;;;;;2.10;1.02;;;;;;;19.77;54.45;101112.06;5062061;28;20881;-77
2022/07/10 04:23:47;;;;;;;1.33;0.70;;;;;;;19.79;54.65;101112.59;5068947;28;20434;-78
2022/07/10 04:26:13;;;;;;;1.92;0.80;;;;;;;19.79;54.36;101112.59;5071855;28;20941;-77
2022/07/10 04:28:41;;;;;;;3.03;1.00;;;;;;;19.77;54.52;101115.63;5054538;28;20411;-77
2022/07/10 04:31:09;;;;;;;2.30;1.30;;;;;;;19.70;54.50;101106.91;5055902;28;20421;-77
2022/07/10 04:33:35;;;;;;;2.00;0.70;;;;;;;19.69;54.31;101111.56;5063845;28;20408;-77
2022/07/10 04:36:02;;;;;;;2.40;0.77;;;;;;;19.71;54.35;101113.22;5071472;28;20909;-77
2022/07/10 04:38:27;;;;;;;5.50;1.03;;;;;;;19.69;54.31;101114.31;5072963;28;20516;-77
2022/07/10 04:40:55;;;;;;;2.17;0.88;;;;;;;19.73;54.28;101113.75;5086101;28;20454;-77
2022/07/10 04:43:24;;;;;;;2.42;0.80;;;;;;;19.52;54.58;101113.13;5078429;28;20469;-77
2022/07/10 04:45:51;;;;;;;1.20;0.90;;;;;;;19.45;54.87;101116.22;5081008;28;20420;-77
2022/07/10 04:48:17;;;;;;;3.10;1.10;;;;;;;19.44;54.47;101117.31;5059942;28;20420;-76
2022/07/10 04:50:43;;;;;;;3.63;1.10;;;;;;;19.44;54.72;101108.22;5070461;28;20403;-77
2022/07/10 04:53:08;;;;;;;2.60;0.80;;;;;;;19.46;54.41;101117.81;5064528;28;20433;-77
2022/07/10 04:55:36;;;;;;;4.07;0.90;;;;;;;19.47;54.22;101116.72;5071203;28;20408;-77
2022/07/10 04:58:02;;;;;;;4.00;1.23;;;;;;;19.53;54.09;101123.00;5064114;28;20567;-77
2022/07/10 05:00:30;;;;;;;2.22;0.90;;;;;;;19.52;54.10;101129.63;5069996;28;20404;-77
2022/07/10 05:02:58;;;;;;;1.58;0.85;;;;;;;19.47;54.07;101127.72;5051098;28;20401;-77
2022/07/10 05:05:25;;;;;;;2.42;0.75;;;;;;;19.44;54.38;101130.22;5062859;28;20427;-77
2022/07/10 05:07:52;;;;;;;2.03;1.20;;;;;;;19.49;54.20;101132.94;5065817;28;20518;-77
2022/07/10 05:10:17;;;;;;;5.90;1.05;;;;;;;19.39;54.58;101133.00;5067909;28;20393;-77
2022/07/10 05:12:43;;;;;;;2.35;0.73;;;;;;;19.37;54.60;101137.94;5067835;28;20537;-77
2022/07/10 05:15:09;;;;;;;1.23;0.90;;;;;;;19.44;54.32;101136.56;5033312;28;20545;-77
2022/07/10 05:17:37;;;;;;;3.60;1.05;;;;;;;19.51;54.24;101137.03;5042224;28;20475;-77
2022/07/10 05:20:06;;;;;;;3.13;0.90;;;;;;;19.54;54.06;101136.47;5071821;28;20427;-77
2022/07/10 05:22:34;;;;;;;3.13;0.93;;;;;;;19.55;53.99;101135.38;5073387;28;20388;-77
2022/07/10 05:25:00;;;;;;;3.47;1.10;;;;;;;19.59;53.95;101141.91;5052073;28;20435;-77
2022/07/10 05:27:31;;;;;;;2.08;0.90;;;;;;;19.59;53.77;101141.13;5059667;28;20467;-77
2022/07/10 05:29:57;;;;;;;2.23;0.87;;;;;;;19.53;53.78;101147.75;5067348;28;20864;-77
2022/07/10 05:32:25;;;;;;;2.83;0.90;;;;;;;19.49;54.10;101147.53;5073134;28;20387;-77
2022/07/10 05:34:53;;;;;;;2.10;0.98;;;;;;;19.55;53.92;101146.38;5065760;28;20409;-76
2022/07/10 05:37:19;;;;;;;3.17;1.02;;;;;;;19.53;53.97;101154.06;5052421;28;20401;-77
2022/07/10 05:39:46;;;;;;;2.67;0.90;;;;;;;19.61;53.53;101153.47;5075681;28;20775;-77
2022/07/10 05:42:14;;;;;;;2.10;0.98;;;;;;;19.65;53.70;101151.78;5050098;28;20408;-76
2022/07/10 05:44:40;;;;;;;3.40;1.40;;;;;;;19.75;53.10;101145.38;5050715;28;20461;-76
2022/07/10 05:47:06;;;;;;;5.30;0.98;;;;;;;19.76;53.36;101144.22;5058573;28;20408;-77
2022/07/10 05:49:32;;;;;;;2.67;1.15;;;;;;;19.81;52.87;101137.88;5073595;28;20498;-77
2022/07/10 05:51:58;;;;;;;3.63;1.20;;;;;;;19.82;52.79;101139.53;5086858;28;20875;-77
2022/07/10 05:54:26;;;;;;;1.77;0.98;;;;;;;19.88;52.75;101152.94;5064097;28;20448;-77
2022/07/10 05:56:51;;;;;;;3.15;0.93;;;;;;;19.94;52.51;101148.19;5056171;28;20397;-76
2022/07/10 05:59:16;;;;;;;2.53;0.93;;;;;;;19.99;52.53;101159.97;5075501;28;20410;-77
2022/07/10 06:01:41;;;;;;;5.27;1.10;;;;;;;19.99;52.29;101165.47;5046836;28;20415;-77
2022/07/10 06:04:07;;;;;;;3.53;1.10;;;;;;;19.99;52.11;101157.22;5072572;28;20411;-75
2022/07/10 06:06:32;;;;;;;5.35;1.20;;;;;;;19.92;52.28;101151.22;5088650;28;20411;-77
2022/07/10 06:08:59;;;;;;;3.77;0.80;;;;;;;19.96;52.07;101166.06;5081088;28;20411;-76
2022/07/10 06:11:25;;;;;;;3.83;1.08;;;;;;;19.97;51.91;101161.38;5048090;28;20512;-77
2022/07/10 06:13:52;;;;;;;3.20;0.90;;;;;;;19.98;51.94;101168.53;5082008;28;20409;-76
2022/07/10 06:16:19;;;;;;;2.25;0.90;;;;;;;20.07;51.74;101169.53;5087816;28;20410;-77
2022/07/10 06:18:47;;;;;;;4.20;0.95;;;;;;;20.17;51.62;101174.94;5053215;28;20471;-77
2022/07/10 06:21:13;;;;;;;4.00;1.03;;;;;;;20.22;51.53;101174.06;5058634;28;20414;-78
2022/07/10 06:23:38;;;;;;;3.15;0.90;;;;;;;20.24;51.41;101178.16;5057389;28;20425;-77
2022/07/10 06:26:04;;;;;;;3.37;0.90;;;;;;;20.23;51.25;101186.69;5076361;28;20398;-77
2022/07/10 06:28:29;;;;;;;1.33;1.00;;;;;;;20.20;51.32;101188.94;5059758;28;20434;-76
2022/07/10 06:30:54;;;;;;;3.23;0.93;;;;;;;20.14;51.29;101192.84;5056956;28;20444;-76
2022/07/10 06:33:19;;;;;;;2.90;0.60;;;;;;;20.15;51.65;101188.16;5075349;28;20779;-77
2022/07/10 06:35:44;;;;;;;4.63;1.15;;;;;;;20.13;51.46;101195.88;5076521;28;20403;-77
2022/07/10 06:38:10;;;;;;;6.93;1.23;;;;;;;20.17;51.48;101195.03;5082622;28;20418;-77
2022/07/10 06:40:37;;;;;;;1.80;0.90;;;;;;;20.17;51.21;101191.44;5094243;28;20428;-77
2022/07/10 06:43:03;;;;;;;1.57;0.80;;;;;;;20.13;50.87;101198.63;5076770;28;20864;-77
2022/07/10 06:45:29;;;;;;;5.82;1.13;;;;;;;20.08;51.19;101193.19;5079555;28;20420;-77
2022/07/10 06:48:00;;;;;;;3.53;1.00;;;;;;;20.01;51.11;101195.47;5080689;28;21114;-75
2022/07/10 06:50:30;;;;;;;1.52;0.90;;;;;;;20.07;51.01;101197.03;5051307;28;20492;-76
2022/07/10 06:52:56;;;;;;;3.85;0.88;;;;;;;20.06;51.04;101195.41;5073702;28;20420;-75
2022/07/10 06:55:23;;;;;;;4.53;1.10;;;;;;;20.09;51.21;101197.56;5069251;28;20395;-79
2022/07/10 06:57:48;;;;;;;3.23;1.27;;;;;;;20.07;50.82;101186.03;5073869;28;20419;-76
2022/07/10 07:00:15;;;;;;;3.65;0.85;;;;;;;20.01;50.64;101192.69;5085371;28;20406;-77
2022/07/10 07:02:40;;;;;;;2.28;1.13;;;;;;;19.96;50.67;101195.50;5062161;28;20405;-76
2022/07/10 07:05:07;;;;;;;3.17;0.90;;;;;;;19.97;50.61;101191.63;5059573;28;20428;-74
2022/07/10 07:07:33;;;;;;;2.35;0.80;;;;;;;20.03;50.64;101190.47;5076972;28;20411;-76
2022/07/10 07:10:00;;;;;;;2.53;1.00;;;;;;;20.09;50.59;101192.88;5093538;28;20890;-75
2022/07/10 07:12:26;;;;;;;3.00;1.10;;;;;;;20.08;50.40;101195.94;5070007;28;20409;-75
2022/07/10 07:14:51;;;;;;;3.30;0.90;;;;;;;20.11;50.30;101193.44;5076837;28;20749;-75
2022/07/10 07:17:24;;;;;;;1.43;0.80;;;;;;;20.14;49.90;101197.53;5071657;28;20504;-75
2022/07/10 07:25:20;;;;;;;4.33;1.10;;;;;;;20.51;48.29;101197.72;5078532;28;20463;-75
2022/07/10 07:27:45;;;;;;;1.65;0.60;;;;;;;20.63;48.13;101200.03;5086509;28;20405;-75
2022/07/10 07:30:16;;;;;;;1.73;0.60;;;;;;;20.74;46.91;101198.81;5061550;28;20408;-75
2022/07/10 07:32:43;;;;;;;1.10;0.43;;;;;;;20.75;46.22;101199.63;5054671;28;20920;-75
2022/07/10 07:35:09;;;;;;;2.67;0.70;;;;;;;20.76;46.11;101204.84;5078882;28;20465;-75
2022/07/10 07:37:42;;;;;;;1.63;0.55;;;;;;;20.81;46.06;101195.69;5064708;28;20500;-75
2022/07/10 07:40:10;;;;;;;2.22;1.35;;;;;;;20.84;45.75;101203.38;5065647;28;20440;-75
2022/07/10 07:42:37;;;;;;;2.63;0.57;;;;;;;20.77;46.05;101197.41;5085086;28;20428;-75
2022/07/10 07:45:03;;;;;;;1.10;0.45;;;;;;;20.88;46.12;101207.19;5071322;28;20413;-76
2022/07/10 07:47:29;;;;;;;1.83;0.65;;;;;;;20.96;45.91;101204.59;5060508;28;20502;-77
2022/07/10 07:49:54;;;;;;;3.03;0.70;;;;;;;21.00;45.71;101204.81;5066135;28;20496;-75
2022/07/10 07:52:20;;;;;;;1.60;0.50;;;;;;;21.02;45.38;101213.59;5072173;28;20410;-75
2022/07/10 07:54:45;;;;;;;3.63;0.70;;;;;;;20.89;45.04;101215.13;5083485;28;20732;-76
2022/07/10 07:57:10;;;;;;;2.63;0.67;;;;;;;20.83;45.14;101204.47;5076516;28;20889;-76
2022/07/10 07:59:36;;;;;;;2.05;0.50;;;;;;;20.79;45.03;101200.66;5076134;28;21088;-76
2022/07/10 08:02:01;;;;;;;3.77;0.90;;;;;;;20.73;45.47;101202.69;5057682;28;20416;-78
2022/07/10 08:04:26;;;;;;;2.53;0.67;;;;;;;20.47;45.68;101206.84;5053620;28;20980;-76
2022/07/10 08:06:53;;;;;;;2.83;0.70;;;;;;;20.47;46.09;101204.09;5058914;28;20435;-77
2022/07/10 08:09:19;;;;;;;3.60;0.73;;;;;;;20.52;45.82;101195.75;5068883;28;20421;-77
2022/07/10 08:11:44;;;;;;;1.55;0.70;;;;;;;20.52;45.83;101187.50;5082227;28;20406;-77
2022/07/10 08:14:10;;;;;;;2.83;1.00;;;;;;;20.49;45.79;101180.66;5069650;28;20413;-77
2022/07/10 08:16:35;;;;;;;1.63;0.70;;;;;;;20.53;45.93;101191.91;5060022;28;20416;-77
2022/07/10 08:19:00;;;;;;;1.53;0.80;;;;;;;20.66;45.97;101188.44;5071194;28;20415;-77
2022/07/10 08:21:26;;;;;;;1.40;0.57;;;;;;;20.85;45.78;101186.53;5067815;28;20782;-77
2022/07/10 08:23:52;;;;;;;2.88;0.52;;;;;;;21.03;45.48;101177.47;5082205;28;20386;-78
2022/07/10 08:26:18;;;;;;;1.15;0.50;;;;;;;21.05;45.23;101189.00;5082595;28;20399;-77
2022/07/10 08:28:43;;;;;;;2.33;0.90;;;;;;;21.00;45.25;101194.63;5069944;28;20470;-77
2022/07/10 08:31:08;;;;;;;2.83;0.60;;;;;;;20.99;45.05;101184.69;5092489;28;20388;-77
2022/07/10 08:33:33;;;;;;;1.70;0.50;;;;;;;21.03;45.08;101190.44;5079436;28;20409;-77
2022/07/10 08:36:00;;;;;;;0.93;0.60;;;;;;;20.96;44.95;101182.53;5074784;28;20480;-77
2022/07/10 08:38:25;;;;;;;1.30;0.52;;;;;;;20.90;44.80;101185.66;5075119;28;20426;-77
2022/07/10 08:40:56;;;;;;;1.10;0.67;;;;;;;20.83;44.87;101191.53;5062878;28;20407;-79
2022/07/10 08:43:22;;;;;;;1.67;0.60;;;;;;;20.63;44.70;101187.09;5061937;28;20562;-78
2022/07/10 08:45:49;;;;;;;0.57;0.50;;;;;;;20.67;45.26;101187.34;5051684;28;20506;-76
2022/07/10 08:48:18;;;;;;;2.47;0.57;;;;;;;20.89;44.83;101187.59;5070792;28;20912;-76
2022/07/10 08:50:47;;;;;;;1.90;0.90;;;;;;;21.03;44.06;101182.16;5078638;28;20421;-77
2022/07/10 08:53:16;;;;;;;2.17;0.60;;;;;;;21.12;43.65;101177.66;5089511;28;20459;-76
2022/07/10 08:55:42;;;;;;;1.80;0.60;;;;;;;21.25;43.06;101181.59;5091950;28;20389;-77
2022/07/10 08:58:08;;;;;;;1.13;0.40;;;;;;;21.22;43.35;101180.25;5072871;28;20414;-75
2022/07/10 09:00:33;;;;;;;1.35;0.68;;;;;;;21.36;42.92;101180.34;5075069;28;20912;-76
2022/07/10 09:02:59;;;;;;;2.43;0.90;;;;;;;21.35;42.25;101182.28;5073318;28;20415;-76
2022/07/10 09:05:25;;;;;;;2.33;0.70;;;;;;;21.32;41.95;101176.53;5079016;28;20413;-78
2022/07/10 09:07:53;;;;;;;2.88;0.55;;;;;;;21.50;42.01;101164.69;5080375;28;20525;-76
2022/07/10 09:10:20;;;;;;;1.50;0.70;;;;;;;21.55;41.51;101175.63;5071453;28;20398;-77
2022/07/10 09:12:54;;;;;;;1.02;0.30;;;;;;;21.65;41.58;101173.53;5071900;28;20403;-76
2022/07/10 09:15:22;;;;;;;1.15;0.30;;;;;;;21.88;40.55;101179.19;5064176;28;20527;-76
2022/07/10 09:17:56;;;;;;;1.10;0.40;;;;;;;22.00;39.58;101176.78;5053541;28;20457;-77
2022/07/10 09:20:33;;;;;;;1.30;0.50;;;;;;;21.90;39.39;101177.78;5062936;28;20453;-74
2022/07/10 09:23:08;;;;;;;1.02;0.50;;;;;;;21.94;39.05;101178.84;5075591;28;20408;-77
2022/07/10 09:25:34;;;;;;;1.67;0.50;;;;;;;22.08;39.34;101174.16;5057998;28;20400;-77
2022/07/10 09:28:05;;;;;;;3.20;0.50;;;;;;;22.28;39.22;101180.44;5069685;28;20421;-77
2022/07/10 09:30:35;;;;;;;3.45;0.47;;;;;;;22.34;38.74;101176.44;5081220;28;20392;-77
2022/07/10 09:33:25;;;;;;;2.75;0.47;;;;;;;22.54;38.34;101176.88;5067707;28;20409;-74
2022/07/10 09:36:14;;;;;;;3.78;0.50;;;;;;;22.83;38.08;101184.03;5046608;28;20423;-77
2022/07/10 09:38:39;;;;;;;0.95;0.40;;;;;;;23.08;37.42;101184.31;5048360;28;20420;-77
2022/07/10 09:41:20;;;;;;;1.60;0.57;;;;;;;23.34;36.88;101181.78;5055914;28;20745;-77
2022/07/10 09:43:55;;;;;;;1.10;0.52;;;;;;;23.55;36.46;101184.88;5065060;28;20490;-77
2022/07/10 09:46:22;;;;;;;0.52;0.38;;;;;;;23.69;35.92;101188.41;5048032;28;20417;-76
2022/07/10 09:49:04;;;;;;;0.90;0.40;;;;;;;23.57;35.78;101183.47;5049920;28;20989;-77
2022/07/10 09:51:34;;;;;;;1.30;0.60;;;;;;;23.36;36.11;101185.03;5047354;28;20534;-77
2022/07/10 09:54:04;;;;;;;1.40;0.50;;;;;;;23.46;36.01;101187.59;5051143;28;22387;-77
2022/07/10 09:56:40;;;;;;;1.02;0.52;;;;;;;23.80;35.59;101184.25;5032692;28;20409;-77
2022/07/10 09:59:10;;;;;;;0.85;0.38;;;;;;;23.95;35.04;101185.81;5046175;28;20455;-76
2022/07/10 10:01:37;;;;;;;1.50;0.40;;;;;;;24.04;34.63;101186.69;5055746;28;20402;-78
2022/07/10 10:04:04;;;;;;;1.48;0.40;;;;;;;24.23;34.49;101181.78;5062001;28;20413;-77
2022/07/10 10:06:31;;;;;;;1.53;0.33;;;;;;;24.35;34.32;101176.44;5056341;28;20493;-77
2022/07/10 10:09:05;;;;;;;2.30;0.52;;;;;;;24.66;33.25;101179.16;5056467;28;20458;-75
2022/07/10 10:11:33;;;;;;;3.65;0.50;;;;;;;25.55;31.86;101165.63;5048285;28;20441;-74
2022/07/10 10:14:00;;;;;;;2.15;0.40;;;;;;;26.73;30.26;101167.53;5069849;28;20535;-78
2022/07/10 10:16:27;;;;;;;2.25;0.65;;;;;;;27.84;28.19;101167.81;5053552;28;20407;-78
2022/07/10 10:21:38;;;;;;;0.90;0.50;;;;;;;29.47;26.09;101174.00;5054070;28;20406;-76
2022/07/10 10:24:04;;;;;;;0.32;0.32;;;;;;;30.58;24.40;101168.25;5049788;28;20439;-76
2022/07/10 10:26:29;;;;;;;0.75;0.40;;;;;;;31.54;23.20;101167.66;5052166;28;20498;-76
2022/07/10 10:28:58;;;;;;;0.70;0.20;;;;;;;32.39;22.00;101162.47;5065711;28;20402;-77
2022/07/10 10:31:24;;;;;;;1.10;0.35;;;;;;;33.13;21.10;101167.66;5079343;28;20891;-76
2022/07/10 10:33:55;;;;;;;0.40;0.35;;;;;;;33.64;20.50;101157.47;5071637;28;20902;-76
2022/07/10 10:36:54;;;;;;;3.85;0.43;;;;;;;33.78;19.85;101162.47;5076850;28;20417;-79
2022/07/10 10:39:19;;;;;;;1.67;0.40;;;;;;;33.88;20.05;101161.75;5067577;28;20421;-77
2022/07/10 10:41:47;;;;;;;0.93;0.40;;;;;;;34.32;19.46;101156.97;5056818;28;20903;-78
2022/07/10 10:44:13;;;;;;;0.80;0.50;;;;;;;34.50;19.10;101161.94;5074899;28;20407;-77
2022/07/10 10:46:50;;;;;;;1.87;0.50;;;;;;;34.91;18.72;101144.56;5075342;28;20416;-76
2022/07/10 10:49:18;;;;;;;2.05;0.55;;;;;;;34.96;18.74;101145.38;5054368;28;20420;-77
2022/07/10 10:52:06;;;;;;;1.83;0.40;;;;;;;34.99;18.92;101144.59;5051866;28;20419;-77
2022/07/10 10:54:57;;;;;;;2.45;0.55;;;;;;;34.90;18.70;101148.59;5073356;28;20413;-77
2022/07/10 10:57:31;;;;;;;0.57;0.30;;;;;;;35.14;18.14;101149.94;5056485;28;20429;-76
2022/07/10 10:59:58;;;;;;;1.15;0.50;;;;;;;35.30;18.38;101153.22;5053606;28;20467;-76
2022/07/10 11:02:26;;;;;;;0.68;0.22;;;;;;;35.67;18.21;101164.25;5054648;28;20448;-77
2022/07/10 11:05:18;;;;;;;1.00;0.45;;;;;;;35.86;17.54;101151.84;5064442;28;20906;-76
2022/07/10 11:07:54;;;;;;;1.40;0.55;;;;;;;36.10;17.65;101164.38;5056093;28;20463;-76
2022/07/10 11:10:44;;;;;;;1.05;0.60;;;;;;;36.10;17.20;101151.06;5050952;28;20405;-76
2022/07/10 11:13:14;;;;;;;2.35;0.47;;;;;;;36.28;17.35;101145.44;5039771;28;20445;-76
2022/07/10 11:15:48;;;;;;;1.42;0.50;;;;;;;36.46;16.99;101148.28;5050549;28;20741;-76
2022/07/10 11:18:17;;;;;;;1.50;0.40;;;;;;;36.45;16.65;101139.00;5043728;28;20501;-76
2022/07/10 11:20:46;;;;;;;2.50;0.50;;;;;;;36.75;16.99;101136.53;5056426;28;20417;-76
2022/07/10 11:23:11;;;;;;;1.40;0.38;;;;;;;37.15;16.30;101148.59;5071767;28;20836;-76
2022/07/10 11:25:50;;;;;;;1.00;0.47;;;;;;;37.31;16.18;101144.06;5069666;28;20405;-77
2022/07/10 11:28:22;;;;;;;2.33;0.60;;;;;;;37.35;16.11;101150.50;5050743;28;20404;-76
2022/07/10 11:30:50;;;;;;;0.45;0.45;;;;;;;37.40;15.92;101138.78;5049384;28;20421;-76
2022/07/10 11:33:16;;;;;;;1.50;0.47;;;;;;;37.12;15.83;101136.06;5051009;28;20404;-76
2022/07/10 11:35:46;;;;;;;0.55;0.30;;;;;;;37.17;15.81;101134.84;5054545;28;20411;-76